Time;durP1;ratioP1;P1;durP2;ratioP2;P2;SDS_P1;SDS_P2;PMS_P1;PMS_P2;Temp;Humidity;BMP_temperature;BMP_pressure;BME280_temperature;BME280_humidity;BME280_pressure;Samples;Min_cycle;Max_cycle;Signal;HPM_P1;HPM_P2
2023/11/16 00:00:12;;;;;;;1.23;0.80;;;21.20;56.00;;;;;;5018370;28;20353;-67
2023/11/16 00:02:38;;;;;;;1.23;0.80;;;21.20;56.00;;;;;;5016578;28;20029;-68
2023/11/16 00:05:04;;;;;;;1.15;0.85;;;21.20;56.00;;;;;;5018157;28;20132;-68
2023/11/16 00:07:32;;;;;;;1.90;1.00;;;21.20;56.10;;;;;;5020015;28;20026;-67
2023/11/16 00:09:58;;;;;;;1.52;0.80;;;21.10;56.00;;;;;;5019100;28;20022;-67
2023/11/16 00:12:24;;;;;;;1.55;0.90;;;21.10;56.00;;;;;;5020043;28;20048;-67
2023/11/16 00:14:49;;;;;;;1.10;0.80;;;21.10;56.00;;;;;;5016506;28;20041;-67
2023/11/16 00:17:15;;;;;;;1.50;0.90;;;21.20;56.10;;;;;;5016822;28;20025;-68
2023/11/16 00:19:41;;;;;;;1.25;0.90;;;21.10;56.00;;;;;;5019125;28;20025;-68
2023/11/16 00:22:07;;;;;;;1.38;0.88;;;21.10;56.00;;;;;;5015886;28;20048;-68
2023/11/16 00:24:33;;;;;;;1.23;0.90;;;21.10;56.00;;;;;;5019887;28;20496;-68
2023/11/16 00:26:59;;;;;;;1.42;0.80;;;21.10;56.00;;;;;;5031554;28;20030;-67
2023/11/16 00:29:24;;;;;;;1.10;0.82;;;21.10;56.10;;;;;;5019461;28;20026;-68
2023/11/16 00:31:50;;;;;;;1.05;0.80;;;21.10;56.00;;;;;;5017203;28;20026;-68
2023/11/16 00:34:15;;;;;;;1.65;0.90;;;21.10;56.00;;;;;;5018755;28;20026;-68
2023/11/16 00:36:41;;;;;;;1.27;0.80;;;21.10;56.00;;;;;;5017198;28;20072;-68
2023/11/16 00:39:08;;;;;;;1.95;1.00;;;21.10;56.50;;;;;;5019190;28;20386;-68
2023/11/16 00:41:35;;;;;;;1.70;0.90;;;21.10;56.00;;;;;;5019029;28;20049;-67
2023/11/16 00:44:02;;;;;;;1.15;0.70;;;21.10;56.10;;;;;;5017756;28;20053;-67
2023/11/16 00:46:28;;;;;;;1.20;0.88;;;21.00;56.00;;;;;;5014409;28;20477;-68
2023/11/16 00:48:54;;;;;;;1.23;0.90;;;21.10;56.00;;;;;;5018308;28;20538;-70
2023/11/16 00:51:20;;;;;;;1.55;0.80;;;21.10;56.00;;;;;;5018757;28;20026;-70
2023/11/16 00:53:46;;;;;;;1.10;0.70;;;21.10;56.00;;;;;;5018326;28;20492;-70
2023/11/16 00:56:13;;;;;;;0.95;0.80;;;21.10;56.00;;;;;;5017362;28;20506;-70
2023/11/16 00:58:39;;;;;;;1.73;1.00;;;21.10;56.00;;;;;;5018495;28;20128;-66
2023/11/16 01:01:09;;;;;;;1.48;0.82;;;21.00;56.00;;;;;;5016781;28;20079;-67
2023/11/16 01:03:36;;;;;;;1.42;0.82;;;21.00;56.00;;;;;;5019155;28;20101;-67
2023/11/16 01:06:02;;;;;;;1.17;0.80;;;21.00;56.00;;;;;;5019284;28;20026;-66
2023/11/16 01:08:33;;;;;;;1.35;0.90;;;21.00;56.00;;;;;;5017352;28;20033;-66
2023/11/16 01:11:08;;;;;;;1.38;0.85;;;21.00;56.00;;;;;;5032962;28;20091;-66
2023/11/16 01:13:40;;;;;;;1.02;0.73;;;21.00;56.00;;;;;;5015526;28;20026;-66
2023/11/16 01:16:14;;;;;;;1.27;0.82;;;21.00;56.00;;;;;;5020505;28;20048;-67
2023/11/16 01:18:49;;;;;;;1.02;0.80;;;21.00;56.00;;;;;;5021723;28;20128;-66
2023/11/16 01:21:16;;;;;;;1.20;0.80;;;21.00;56.00;;;;;;5021470;28;20068;-66
2023/11/16 01:23:44;;;;;;;1.50;0.90;;;21.00;56.00;;;;;;5020626;28;20026;-66
2023/11/16 01:26:14;;;;;;;1.30;0.90;;;21.00;56.00;;;;;;5020083;28;20026;-66
2023/11/16 01:28:45;;;;;;;1.63;0.90;;;21.00;56.00;;;;;;5021304;28;20030;-66
2023/11/16 01:31:13;;;;;;;1.27;0.80;;;21.00;56.00;;;;;;5021951;28;20026;-66
2023/11/16 01:33:38;;;;;;;1.02;0.75;;;21.00;56.00;;;;;;5019497;28;20038;-66
2023/11/16 01:36:04;;;;;;;1.00;0.80;;;21.00;56.00;;;;;;5021622;28;20508;-66
2023/11/16 01:38:33;;;;;;;1.30;0.80;;;21.00;56.00;;;;;;5021275;28;20019;-66
2023/11/16 01:40:58;;;;;;;1.90;0.93;;;21.00;56.00;;;;;;5019706;28;20030;-66
2023/11/16 01:43:26;;;;;;;1.50;0.95;;;21.00;56.00;;;;;;5021815;28;20025;-66
2023/11/16 01:45:52;;;;;;;1.52;0.75;;;21.00;56.00;;;;;;5023000;28;20052;-66
2023/11/16 01:48:24;;;;;;;1.55;1.00;;;20.90;55.90;;;;;;5019178;28;20116;-66
2023/11/16 01:50:51;;;;;;;1.10;0.90;;;20.90;55.90;;;;;;5020413;28;20049;-66
2023/11/16 01:53:17;;;;;;;1.20;0.73;;;20.90;55.90;;;;;;5021563;28;20021;-67
2023/11/16 01:55:46;;;;;;;1.13;0.80;;;20.90;56.00;;;;;;5017859;28;20041;-66
2023/11/16 01:58:13;;;;;;;0.90;0.70;;;20.90;56.00;;;;;;5019847;28;20026;-66
2023/11/16 02:00:42;;;;;;;1.33;0.80;;;20.90;56.00;;;;;;5021605;28;20140;-67
2023/11/16 02:03:08;;;;;;;0.65;0.63;;;20.90;55.90;;;;;;5017475;28;20072;-67
2023/11/16 02:05:36;;;;;;;1.08;0.70;;;20.90;55.90;;;;;;5019985;28;20037;-66
2023/11/16 02:08:10;;;;;;;0.93;0.70;;;20.90;55.90;;;;;;5019240;28;20433;-67
2023/11/16 02:10:37;;;;;;;1.02;0.75;;;20.90;56.00;;;;;;5016568;28;20104;-67
2023/11/16 02:13:13;;;;;;;1.08;0.77;;;20.90;55.90;;;;;;5019474;28;20499;-66
2023/11/16 02:15:39;;;;;;;1.30;0.90;;;20.80;55.90;;;;;;5022756;28;20038;-66
2023/11/16 02:18:05;;;;;;;1.75;1.00;;;20.90;55.90;;;;;;5002018;28;20119;-66
2023/11/16 02:20:31;;;;;;;1.70;0.80;;;20.90;56.00;;;;;;5019923;28;20018;-66
2023/11/16 02:23:02;;;;;;;1.17;0.80;;;20.90;55.90;;;;;;5018264;28;20017;-66
2023/11/16 02:25:29;;;;;;;0.75;0.68;;;20.90;55.90;;;;;;5019790;28;20041;-66
2023/11/16 02:27:55;;;;;;;1.23;0.80;;;20.90;55.90;;;;;;5020705;28;20025;-67
2023/11/16 02:30:20;;;;;;;1.25;0.77;;;20.90;56.00;;;;;;5003931;28;20077;-66
2023/11/16 02:32:46;;;;;;;1.23;0.80;;;20.90;55.90;;;;;;5019055;28;20033;-66
2023/11/16 02:35:12;;;;;;;1.08;0.85;;;20.90;55.90;;;;;;5021264;28;20120;-66
2023/11/16 02:37:38;;;;;;;1.50;0.80;;;20.80;55.90;;;;;;5020499;28;20030;-66
2023/11/16 02:40:05;;;;;;;1.92;0.80;;;20.90;55.90;;;;;;5035447;28;20026;-66
2023/11/16 02:42:31;;;;;;;0.93;0.70;;;20.90;55.90;;;;;;5019756;28;20113;-66
2023/11/16 02:44:57;;;;;;;0.75;0.60;;;20.80;55.90;;;;;;5017649;28;20065;-66
2023/11/16 02:47:28;;;;;;;1.20;0.70;;;20.80;55.90;;;;;;5019578;28;20014;-66
2023/11/16 02:49:54;;;;;;;1.17;0.60;;;20.80;55.90;;;;;;5019143;28;20027;-66
2023/11/16 02:52:19;;;;;;;1.00;0.70;;;20.80;55.90;;;;;;5020334;28;20042;-66
2023/11/16 02:54:47;;;;;;;1.33;0.75;;;20.80;55.90;;;;;;5033894;28;20514;-67
2023/11/16 02:57:13;;;;;;;0.95;0.60;;;20.80;55.90;;;;;;5003766;28;20048;-67
2023/11/16 02:59:39;;;;;;;1.13;0.70;;;20.80;55.90;;;;;;5018488;28;20026;-66
2023/11/16 03:02:06;;;;;;;1.30;0.80;;;20.80;55.90;;;;;;5018292;28;20026;-66
2023/11/16 03:04:32;;;;;;;1.45;0.80;;;20.80;55.90;;;;;;5019695;28;20039;-67
2023/11/16 03:06:57;;;;;;;1.00;0.70;;;20.80;55.90;;;;;;5032645;28;20021;-66
2023/11/16 03:09:23;;;;;;;1.20;0.80;;;20.80;55.90;;;;;;5020419;28;20055;-70
2023/11/16 03:11:49;;;;;;;1.52;0.82;;;20.80;55.90;;;;;;5019929;28;20450;-69
2023/11/16 03:14:14;;;;;;;1.55;0.90;;;20.80;55.90;;;;;;5018292;28;20052;-70
2023/11/16 03:16:45;;;;;;;1.00;0.70;;;20.80;55.90;;;;;;5019754;28;20076;-70
2023/11/16 03:19:12;;;;;;;1.50;0.80;;;20.80;55.90;;;;;;5017112;28;20029;-66
2023/11/16 03:21:38;;;;;;;1.15;0.80;;;20.70;55.80;;;;;;5019706;28;20532;-66
2023/11/16 03:24:04;;;;;;;1.10;0.80;;;20.80;55.90;;;;;;5019102;28;20251;-67
2023/11/16 03:26:29;;;;;;;0.95;0.70;;;20.80;55.90;;;;;;5019448;28;20034;-66
2023/11/16 03:28:57;;;;;;;0.98;0.68;;;20.80;55.90;;;;;;5019854;28;20111;-66
2023/11/16 03:31:23;;;;;;;0.90;0.68;;;20.80;55.90;;;;;;5019423;28;20032;-66
2023/11/16 03:33:49;;;;;;;1.13;0.80;;;20.70;55.80;;;;;;5018046;28;20022;-67
2023/11/16 03:36:14;;;;;;;1.13;0.75;;;20.70;55.80;;;;;;5018117;28;20034;-66
2023/11/16 03:38:40;;;;;;;1.00;0.60;;;20.70;55.90;;;;;;5016434;28;20474;-66
2023/11/16 03:41:06;;;;;;;1.63;0.80;;;20.80;55.90;;;;;;5019392;28;20033;-67
2023/11/16 03:43:32;;;;;;;0.90;0.80;;;20.70;55.90;;;;;;5018928;28;20022;-66
2023/11/16 03:45:58;;;;;;;1.20;0.70;;;20.70;55.80;;;;;;5020644;28;20046;-66
2023/11/16 03:48:23;;;;;;;0.88;0.60;;;20.70;55.90;;;;;;5016947;28;20497;-67
2023/11/16 03:50:49;;;;;;;1.15;0.77;;;20.70;55.90;;;;;;5018325;28;20393;-67
2023/11/16 03:53:15;;;;;;;1.23;0.70;;;20.70;55.90;;;;;;5016218;28;20029;-66
2023/11/16 03:55:40;;;;;;;0.95;0.60;;;20.70;55.90;;;;;;5016269;28;20362;-66
2023/11/16 03:58:06;;;;;;;1.17;0.80;;;20.70;55.90;;;;;;5033523;28;20021;-66
2023/11/16 04:00:31;;;;;;;1.13;0.80;;;20.70;55.90;;;;;;5019890;28;20025;-66
2023/11/16 04:03:00;;;;;;;1.13;0.80;;;20.70;55.90;;;;;;5016047;28;20172;-67
2023/11/16 04:05:27;;;;;;;1.02;0.68;;;20.70;55.90;;;;;;5018761;28;20068;-66
2023/11/16 04:07:56;;;;;;;1.20;0.75;;;20.70;55.90;;;;;;5017894;28;20069;-66
2023/11/16 04:10:22;;;;;;;1.05;0.65;;;20.70;55.90;;;;;;5018354;28;20083;-66
2023/11/16 04:12:48;;;;;;;1.42;0.70;;;20.70;55.90;;;;;;5018064;28;20038;-66
2023/11/16 04:15:14;;;;;;;0.80;0.60;;;20.70;55.90;;;;;;5018556;28;20045;-66
2023/11/16 04:17:40;;;;;;;1.20;0.70;;;20.70;55.90;;;;;;5017659;28;20028;-66
2023/11/16 04:20:08;;;;;;;1.00;0.60;;;20.70;55.90;;;;;;5017479;28;20497;-67
2023/11/16 04:22:38;;;;;;;0.70;0.60;;;20.70;55.90;;;;;;5017572;28;20030;-66
2023/11/16 04:25:18;;;;;;;1.17;0.70;;;20.70;55.90;;;;;;5018408;28;20044;-66
2023/11/16 04:27:45;;;;;;;1.00;0.70;;;20.60;55.90;;;;;;4999984;28;20034;-66
2023/11/16 04:30:13;;;;;;;0.80;0.70;;;20.60;55.90;;;;;;5019953;28;20029;-66
2023/11/16 04:32:42;;;;;;;1.40;0.70;;;20.60;55.90;;;;;;5019802;28;20498;-67
2023/11/16 04:35:09;;;;;;;0.70;0.60;;;20.70;56.00;;;;;;4992244;28;20501;-66
2023/11/16 04:37:37;;;;;;;0.40;0.40;;;20.60;55.90;;;;;;5016886;28;20033;-66
2023/11/16 04:40:09;;;;;;;0.95;0.70;;;20.60;55.90;;;;;;5018988;28;20108;-68
2023/11/16 04:42:35;;;;;;;1.30;0.80;;;20.70;56.00;;;;;;5018290;28;20025;-66
2023/11/16 04:45:06;;;;;;;0.73;0.60;;;20.60;56.00;;;;;;5032926;28;20030;-67
2023/11/16 04:47:34;;;;;;;0.90;0.70;;;20.60;56.00;;;;;;5018644;28;20022;-66
2023/11/16 04:50:00;;;;;;;0.90;0.60;;;20.60;56.00;;;;;;5019473;28;20041;-66
2023/11/16 04:52:26;;;;;;;1.08;0.70;;;20.60;56.00;;;;;;5022975;28;20022;-67
2023/11/16 04:54:53;;;;;;;1.52;0.60;;;20.70;56.10;;;;;;5022809;28;20873;-67
2023/11/16 04:57:19;;;;;;;0.73;0.60;;;20.60;56.00;;;;;;5021581;28;20068;-66
2023/11/16 04:59:44;;;;;;;0.95;0.82;;;20.60;56.00;;;;;;5022144;28;20482;-66
2023/11/16 05:02:10;;;;;;;1.23;0.73;;;20.60;56.00;;;;;;5022581;28;20022;-66
2023/11/16 05:04:36;;;;;;;0.90;0.60;;;20.60;56.00;;;;;;5019805;28;20018;-67
2023/11/16 05:07:01;;;;;;;0.80;0.60;;;20.60;56.00;;;;;;5021045;28;20037;-66
2023/11/16 05:09:27;;;;;;;1.35;0.70;;;20.60;56.00;;;;;;5018832;28;20018;-66
2023/11/16 05:11:54;;;;;;;1.00;0.68;;;20.60;56.00;;;;;;5019995;28;20029;-67
2023/11/16 05:14:20;;;;;;;1.15;0.60;;;20.60;56.00;;;;;;5021286;28;20029;-66
2023/11/16 05:16:46;;;;;;;0.88;0.60;;;20.60;56.00;;;;;;5018448;28;20389;-66
2023/11/16 05:19:12;;;;;;;0.70;0.60;;;20.60;56.50;;;;;;5019952;28;20026;-66
2023/11/16 05:21:39;;;;;;;1.05;0.80;;;20.60;56.00;;;;;;5036337;28;20030;-67
2023/11/16 05:24:06;;;;;;;0.82;0.70;;;20.60;56.00;;;;;;5022682;28;20038;-66
2023/11/16 05:26:31;;;;;;;0.68;0.65;;;20.60;56.00;;;;;;5021323;28;20097;-67
2023/11/16 05:28:57;;;;;;;1.02;0.70;;;20.60;56.00;;;;;;5022104;28;20793;-67
2023/11/16 05:31:22;;;;;;;1.02;0.60;;;20.60;56.00;;;;;;5021919;28;20032;-67
2023/11/16 05:33:48;;;;;;;0.93;0.60;;;20.60;56.10;;;;;;5020394;28;20469;-67
2023/11/16 05:36:14;;;;;;;1.05;0.68;;;20.60;56.10;;;;;;5020345;28;20061;-67
2023/11/16 05:38:39;;;;;;;1.13;0.68;;;20.60;56.10;;;;;;5004959;28;20030;-67
2023/11/16 05:41:06;;;;;;;1.10;0.70;;;20.60;56.10;;;;;;5020506;28;20100;-68
2023/11/16 05:43:33;;;;;;;1.38;0.60;;;20.60;56.10;;;;;;5039487;28;20025;-68
2023/11/16 05:45:58;;;;;;;1.20;0.77;;;20.60;56.10;;;;;;5020683;28;20464;-68
2023/11/16 05:48:24;;;;;;;0.70;0.60;;;20.60;56.10;;;;;;5019294;28;20026;-68
2023/11/16 05:50:50;;;;;;;0.82;0.70;;;20.50;56.00;;;;;;5020117;28;20033;-68
2023/11/16 05:53:15;;;;;;;0.93;0.63;;;20.50;56.10;;;;;;5020127;28;20085;-68
2023/11/16 05:55:42;;;;;;;1.08;0.73;;;20.60;56.10;;;;;;5000774;28;20041;-68
2023/11/16 05:58:09;;;;;;;0.95;0.57;;;20.50;56.10;;;;;;5021600;28;20022;-68
2023/11/16 06:00:36;;;;;;;1.50;0.60;;;20.50;56.20;;;;;;5020857;28;20048;-67
2023/11/16 06:03:04;;;;;;;1.02;0.70;;;20.60;56.10;;;;;;5021556;28;20045;-68
2023/11/16 06:05:30;;;;;;;1.08;0.80;;;20.50;56.10;;;;;;5019706;28;20021;-68
2023/11/16 06:07:56;;;;;;;0.98;0.60;;;20.50;56.10;;;;;;5020258;28;20409;-68
2023/11/16 06:10:21;;;;;;;0.63;0.60;;;20.60;56.20;;;;;;5019343;28;20061;-68
2023/11/16 06:12:47;;;;;;;1.08;0.70;;;20.50;56.10;;;;;;5021952;28;20037;-68
2023/11/16 06:15:16;;;;;;;1.10;0.60;;;20.50;56.10;;;;;;5018856;28;20460;-69
2023/11/16 06:17:42;;;;;;;1.33;0.80;;;20.60;56.30;;;;;;5021064;28;20022;-66
2023/11/16 06:20:12;;;;;;;1.00;0.70;;;20.50;56.50;;;;;;5019697;28;20172;-66
2023/11/16 06:22:38;;;;;;;;;;;20.50;56.60;;;;;;5022676;28;20466;-66
2023/11/16 06:25:04;;;;;;;1.25;0.70;;;20.50;56.60;;;;;;5021484;28;20270;-67
2023/11/16 06:27:34;;;;;;;1.10;0.70;;;20.50;56.50;;;;;;5019069;28;20047;-66
2023/11/16 06:30:00;;;;;;;1.55;0.70;;;20.50;56.40;;;;;;5022659;28;20036;-66
2023/11/16 06:32:26;;;;;;;1.27;0.70;;;20.50;56.40;;;;;;5036649;28;20049;-66
2023/11/16 06:34:54;;;;;;;1.55;0.80;;;20.50;56.40;;;;;;5018510;28;20909;-66
2023/11/16 06:37:20;;;;;;;1.10;0.70;;;20.50;56.40;;;;;;5037056;28;20033;-66
2023/11/16 06:39:46;;;;;;;1.42;0.80;;;20.50;56.40;;;;;;5018248;28;20025;-67
2023/11/16 06:42:11;;;;;;;1.13;0.70;;;20.50;56.30;;;;;;5020544;28;20022;-67
2023/11/16 06:44:37;;;;;;;1.02;0.80;;;20.50;56.30;;;;;;5019877;28;20031;-67
2023/11/16 06:47:03;;;;;;;1.00;0.60;;;20.50;56.30;;;;;;5020371;28;20030;-66
2023/11/16 06:49:29;;;;;;;0.80;0.60;;;20.50;56.80;;;;;;5017000;28;20123;-66
2023/11/16 06:51:54;;;;;;;1.20;0.60;;;20.50;56.30;;;;;;5020949;28;20025;-65
2023/11/16 06:54:21;;;;;;;1.80;0.90;;;20.50;56.30;;;;;;5018638;28;20021;-66
2023/11/16 06:56:50;;;;;;;1.30;0.70;;;20.50;56.30;;;;;;5018788;28;20474;-65
2023/11/16 06:59:19;;;;;;;1.50;0.70;;;20.50;56.30;;;;;;5019050;28;20029;-65
2023/11/16 07:01:47;;;;;;;;;;;20.50;56.30;;;;;;5021615;28;20025;-65
2023/11/16 07:04:14;;;;;;;1.30;0.77;;;20.50;56.30;;;;;;5017836;28;19913;-65
2023/11/16 07:06:40;;;;;;;1.83;0.70;;;20.50;56.40;;;;;;5018866;28;20473;-65
2023/11/16 07:09:06;;;;;;;1.08;0.77;;;20.50;56.30;;;;;;5020366;28;20026;-66
2023/11/16 07:11:32;;;;;;;1.63;0.88;;;20.50;56.40;;;;;;5016544;28;20172;-66
2023/11/16 07:13:57;;;;;;;1.02;0.70;;;20.50;56.30;;;;;;5019713;28;20083;-65
2023/11/16 07:16:23;;;;;;;1.83;0.90;;;20.50;56.40;;;;;;5020593;28;20477;-65
2023/11/16 07:18:49;;;;;;;1.67;0.80;;;20.40;56.30;;;;;;5018231;28;20107;-65
2023/11/16 07:21:14;;;;;;;1.33;0.77;;;20.40;56.30;;;;;;5017984;28;20448;-66
2023/11/16 07:23:43;;;;;;;0.90;0.63;;;20.50;56.40;;;;;;5019420;28;20022;-65
2023/11/16 07:26:09;;;;;;;1.20;0.70;;;20.40;56.30;;;;;;5018023;28;20464;-65
2023/11/16 07:28:36;;;;;;;1.48;0.77;;;20.40;56.30;;;;;;5018470;28;20030;-65
2023/11/16 07:31:07;;;;;;;0.90;0.60;;;20.40;56.30;;;;;;5015289;28;20473;-66
2023/11/16 07:33:35;;;;;;;1.00;0.63;;;20.40;56.30;;;;;;5017620;28;20022;-65
2023/11/16 07:36:02;;;;;;;1.10;0.70;;;20.50;56.40;;;;;;5014808;28;20644;-66
2023/11/16 07:38:28;;;;;;;1.20;0.77;;;20.40;56.40;;;;;;5018728;28;20101;-65
2023/11/16 07:40:57;;;;;;;0.75;0.70;;;20.40;56.40;;;;;;5019242;28;20014;-65
2023/11/16 07:43:23;;;;;;;2.15;0.90;;;20.40;56.40;;;;;;5034170;28;20175;-65
2023/11/16 07:45:49;;;;;;;1.40;0.70;;;20.40;56.40;;;;;;5017647;28;20115;-65
2023/11/16 07:48:15;;;;;;;0.93;0.70;;;20.40;56.40;;;;;;5018815;28;20447;-65
2023/11/16 07:50:42;;;;;;;1.20;0.80;;;20.40;56.40;;;;;;5018537;28;20037;-65
2023/11/16 07:53:10;;;;;;;1.25;0.80;;;20.40;56.40;;;;;;5018984;28;20034;-65
2023/11/16 07:55:36;;;;;;;0.98;0.70;;;20.40;56.90;;;;;;5020314;28;20099;-65
2023/11/16 07:58:03;;;;;;;0.93;0.70;;;20.40;56.40;;;;;;5019084;28;20052;-65
2023/11/16 08:00:44;;;;;;;1.17;0.73;;;20.40;56.40;;;;;;5018776;28;20025;-66
2023/11/16 08:05:54;;;;;;;1.02;0.70;;;20.40;56.40;;;;;;5017197;28;20037;-65
2023/11/16 08:08:20;;;;;;;0.90;0.65;;;20.40;56.50;;;;;;5017651;28;20025;-65
2023/11/16 08:10:49;;;;;;;0.82;0.65;;;20.40;56.50;;;;;;5018724;28;20413;-66
2023/11/16 08:13:17;;;;;;;1.50;0.80;;;20.40;56.50;;;;;;5017407;28;20029;-66
2023/11/16 08:15:43;;;;;;;0.95;0.70;;;20.30;56.90;;;;;;5018686;28;20033;-65
2023/11/16 08:18:10;;;;;;;1.13;0.80;;;20.40;56.50;;;;;;5014862;28;20479;-66
2023/11/16 08:20:36;;;;;;;1.45;0.90;;;20.40;56.50;;;;;;5014631;28;20101;-65
2023/11/16 08:23:02;;;;;;;0.75;0.52;;;20.40;56.50;;;;;;5018105;28;20393;-65
2023/11/16 08:25:28;;;;;;;1.45;0.77;;;20.30;56.50;;;;;;5018331;28;20030;-65
2023/11/16 08:27:55;;;;;;;0.93;0.65;;;20.30;56.50;;;;;;5016237;28;20109;-65
2023/11/16 08:30:24;;;;;;;1.13;0.65;;;20.40;56.60;;;;;;5015935;28;20029;-65
2023/11/16 08:32:50;;;;;;;1.05;0.70;;;20.30;56.50;;;;;;5017588;28;20037;-65
2023/11/16 08:35:16;;;;;;;1.23;0.90;;;20.30;56.50;;;;;;5015881;28;20034;-65
2023/11/16 08:37:42;;;;;;;1.83;0.85;;;20.30;56.50;;;;;;5018731;28;20026;-66
2023/11/16 08:40:16;;;;;;;1.13;0.80;;;20.40;56.60;;;;;;5001277;28;20412;-66
2023/11/16 08:42:42;;;;;;;0.77;0.70;;;20.40;56.60;;;;;;5017776;28;20022;-65
2023/11/16 08:45:17;;;;;;;1.20;0.65;;;20.30;56.60;;;;;;5017411;28;20426;-65
2023/11/16 08:47:44;;;;;;;1.40;0.80;;;20.40;56.60;;;;;;5016736;28;20593;-66
2023/11/16 08:50:12;;;;;;;1.50;0.70;;;20.40;56.70;;;;;;5014974;28;20495;-65
2023/11/16 08:52:42;;;;;;;1.15;0.77;;;20.30;56.60;;;;;;5017650;28;20026;-65
2023/11/16 08:55:14;;;;;;;1.42;0.80;;;20.30;56.60;;;;;;5017758;28;20330;-65
2023/11/16 08:57:45;;;;;;;0.93;0.70;;;20.30;56.80;;;;;;5016556;28;20049;-65
2023/11/16 09:02:57;;;;;;;0.82;0.52;;;20.40;56.60;;;;;;5017262;28;20044;-66
2023/11/16 09:05:24;;;;;;;1.35;0.88;;;20.30;56.60;;;;;;5015123;28;20030;-67
2023/11/16 09:07:53;;;;;;;1.17;0.68;;;20.40;56.60;;;;;;5016988;28;20085;-67
2023/11/16 09:10:20;;;;;;;1.85;0.70;;;20.30;56.60;;;;;;5016600;28;20057;-69
2023/11/16 09:12:47;;;;;;;0.82;0.63;;;20.30;56.60;;;;;;5008152;28;20078;-69
2023/11/16 09:15:15;;;;;;;1.50;0.80;;;20.30;56.60;;;;;;5015767;28;20022;-69
2023/11/16 09:17:45;;;;;;;1.00;0.70;;;20.40;56.70;;;;;;5014554;28;20026;-69
2023/11/16 09:20:11;;;;;;;0.95;0.60;;;20.40;56.70;;;;;;5012503;28;20108;-70
2023/11/16 09:22:38;;;;;;;1.08;0.63;;;20.30;56.60;;;;;;5017900;28;20426;-69
2023/11/16 09:25:06;;;;;;;1.05;0.75;;;20.30;56.60;;;;;;5019360;28;20543;-70
2023/11/16 09:27:38;;;;;;;1.13;0.70;;;20.30;56.60;;;;;;5032216;28;20056;-69
2023/11/16 09:30:05;;;;;;;0.90;0.70;;;20.30;56.60;;;;;;5018364;28;20026;-69
2023/11/16 09:32:34;;;;;;;1.23;0.75;;;20.30;56.60;;;;;;5032970;28;20094;-70
2023/11/16 09:34:59;;;;;;;1.00;0.70;;;20.30;56.60;;;;;;5017771;28;20119;-68
2023/11/16 09:37:29;;;;;;;1.17;0.70;;;20.40;56.70;;;;;;5021227;28;20410;-69
2023/11/16 09:39:55;;;;;;;;;;;20.30;56.60;;;;;;5022168;28;20025;-69
2023/11/16 09:42:24;;;;;;;1.10;0.77;;;20.40;56.70;;;;;;5020173;28;19999;-70
2023/11/16 09:44:58;;;;;;;1.48;0.85;;;20.30;56.60;;;;;;5020503;28;20045;-69
2023/11/16 09:47:26;;;;;;;1.42;0.85;;;20.30;56.60;;;;;;5019965;28;20072;-69
2023/11/16 09:49:56;;;;;;;1.20;0.70;;;20.40;56.70;;;;;;5020978;28;20464;-69
2023/11/16 09:52:33;;;;;;;1.08;0.80;;;20.30;56.60;;;;;;5018756;28;20017;-70
2023/11/16 09:55:01;;;;;;;0.80;0.70;;;20.30;56.60;;;;;;5020325;28;20083;-69
2023/11/16 09:57:33;;;;;;;1.45;0.80;;;20.30;56.60;;;;;;5021339;28;20025;-69
2023/11/16 10:00:02;;;;;;;0.70;0.60;;;20.30;56.70;;;;;;5020389;28;20425;-69
2023/11/16 10:02:32;;;;;;;1.17;0.75;;;20.30;56.70;;;;;;5020428;28;20079;-69
2023/11/16 10:05:01;;;;;;;1.05;0.70;;;20.30;56.70;;;;;;5019870;28;20057;-70
2023/11/16 10:07:28;;;;;;;1.30;0.80;;;20.30;56.70;;;;;;5017876;28;20045;-70
2023/11/16 10:09:57;;;;;;;1.42;0.80;;;20.30;56.70;;;;;;5022414;28;20486;-69
2023/11/16 10:12:23;;;;;;;1.00;0.70;;;20.30;56.70;;;;;;5020746;28;20022;-69
2023/11/16 10:14:52;;;;;;;1.05;0.60;;;20.30;56.70;;;;;;5020361;28;20374;-69
2023/11/16 10:17:24;;;;;;;1.00;0.70;;;20.30;56.70;;;;;;5019602;28;20188;-69
2023/11/16 10:19:51;;;;;;;1.30;0.60;;;20.30;56.70;;;;;;5019221;28;20033;-69
2023/11/16 10:22:17;;;;;;;1.05;0.75;;;20.30;56.70;;;;;;5019307;28;20021;-66
2023/11/16 10:24:43;;;;;;;1.08;0.68;;;20.30;56.70;;;;;;5022281;28;20045;-66
2023/11/16 10:27:10;;;;;;;1.23;0.80;;;20.30;56.80;;;;;;5021193;28;20057;-66
2023/11/16 10:29:35;;;;;;;1.42;0.70;;;20.30;56.80;;;;;;5020488;28;20104;-66
2023/11/16 10:32:05;;;;;;;1.77;0.90;;;20.30;56.70;;;;;;5018202;28;20033;-66
2023/11/16 10:34:31;;;;;;;1.38;0.82;;;20.30;56.70;;;;;;5017935;28;20037;-66
2023/11/16 10:37:00;;;;;;;1.40;0.70;;;20.30;56.80;;;;;;5017012;28;20037;-66
2023/11/16 10:39:27;;;;;;;0.70;0.60;;;20.30;56.70;;;;;;5020420;28;20145;-66
2023/11/16 10:41:53;;;;;;;1.38;0.70;;;20.30;56.70;;;;;;5020227;28;20478;-66
2023/11/16 10:44:24;;;;;;;0.98;0.80;;;20.30;56.80;;;;;;5018971;28;20029;-66
2023/11/16 10:46:51;;;;;;;0.90;0.70;;;20.30;56.70;;;;;;5019257;28;20365;-66
2023/11/16 10:49:17;;;;;;;1.42;0.80;;;20.30;56.80;;;;;;5021021;28;20104;-66
2023/11/16 10:51:46;;;;;;;1.33;0.80;;;20.30;56.80;;;;;;5017175;28;20113;-67
2023/11/16 10:54:18;;;;;;;1.05;0.70;;;20.30;56.80;;;;;;5014441;28;20056;-66
2023/11/16 10:56:45;;;;;;;0.68;0.57;;;20.30;56.80;;;;;;5019577;28;20022;-66
2023/11/16 10:59:13;;;;;;;1.27;0.90;;;20.30;56.80;;;;;;5016736;28;20466;-66
2023/11/16 11:01:40;;;;;;;1.17;0.63;;;20.30;56.80;;;;;;5018968;28;20025;-66
2023/11/16 11:04:06;;;;;;;1.50;0.77;;;20.30;56.80;;;;;;5020160;28;20384;-66
2023/11/16 11:06:39;;;;;;;1.17;0.70;;;20.30;56.80;;;;;;5018065;28;20025;-66
2023/11/16 11:09:08;;;;;;;1.02;0.70;;;20.30;56.80;;;;;;5020966;28;20124;-67
2023/11/16 11:11:38;;;;;;;0.90;0.65;;;20.30;56.80;;;;;;5020198;28;20052;-66
2023/11/16 11:14:06;;;;;;;1.08;0.70;;;20.30;56.80;;;;;;5018798;28;20434;-67
2023/11/16 11:16:31;;;;;;;1.35;0.60;;;20.30;56.80;;;;;;5019532;28;20057;-66
2023/11/16 11:18:58;;;;;;;1.23;0.70;;;20.30;56.80;;;;;;5019889;28;20053;-66
2023/11/16 11:21:24;;;;;;;0.80;0.70;;;20.30;56.80;;;;;;5016019;28;20496;-70
2023/11/16 11:24:08;;;;;;;1.10;0.80;;;20.30;56.70;;;;;;5020137;28;20485;-69
2023/11/16 11:26:48;;;;;;;0.90;0.60;;;20.30;56.80;;;;;;5020051;28;20426;-69
2023/11/16 11:29:14;;;;;;;1.08;0.80;;;20.30;56.80;;;;;;5019974;28;20018;-70
2023/11/16 11:32:00;;;;;;;1.17;0.70;;;20.30;56.80;;;;;;5019651;28;20097;-69
2023/11/16 11:34:36;;;;;;;1.55;0.90;;;20.30;56.80;;;;;;5019230;28;20026;-69
2023/11/16 11:37:07;;;;;;;1.27;0.80;;;20.30;56.80;;;;;;5015975;28;20037;-69
2023/11/16 11:39:46;;;;;;;1.00;0.60;;;20.30;56.80;;;;;;5019083;28;20033;-69
2023/11/16 11:42:12;;;;;;;1.17;0.80;;;20.30;56.80;;;;;;5019695;28;20097;-69
2023/11/16 11:44:51;;;;;;;1.40;0.80;;;20.30;56.80;;;;;;5019384;28;20090;-69
2023/11/16 11:47:20;;;;;;;1.05;0.80;;;20.30;57.40;;;;;;5018124;28;20025;-69
2023/11/16 11:49:46;;;;;;;0.98;0.70;;;20.30;56.80;;;;;;5019982;28;20030;-69
2023/11/16 11:52:12;;;;;;;1.40;0.80;;;20.30;56.80;;;;;;5017291;28;20112;-69
2023/11/16 11:54:41;;;;;;;1.45;0.80;;;20.30;56.80;;;;;;5019127;28;20022;-69
2023/11/16 11:57:07;;;;;;;1.60;0.80;;;20.30;56.80;;;;;;5017386;28;20026;-69
2023/11/16 11:59:35;;;;;;;0.93;0.63;;;20.30;56.90;;;;;;5018901;28;20026;-69
2023/11/16 12:02:07;;;;;;;1.17;0.90;;;20.30;56.80;;;;;;5018901;28;20038;-70
2023/11/16 12:04:35;;;;;;;1.33;0.70;;;20.30;56.90;;;;;;5019142;28;20534;-69
2023/11/16 12:07:08;;;;;;;1.55;0.80;;;20.30;56.80;;;;;;5016286;28;20058;-69
2023/11/16 12:09:40;;;;;;;1.10;0.70;;;20.30;56.80;;;;;;5019346;28;20036;-70
2023/11/16 12:12:07;;;;;;;0.93;0.63;;;20.30;56.80;;;;;;5019417;28;20026;-69
2023/11/16 12:14:46;;;;;;;1.10;0.70;;;20.30;56.80;;;;;;5016609;28;20393;-69
2023/11/16 12:17:15;;;;;;;1.00;0.70;;;20.30;56.80;;;;;;5018212;28;20079;-69
2023/11/16 12:19:42;;;;;;;0.95;0.60;;;20.30;56.80;;;;;;5017772;28;20033;-69
2023/11/16 12:22:10;;;;;;;1.88;0.82;;;20.30;56.80;;;;;;5015823;28;20025;-69
2023/11/16 12:24:36;;;;;;;1.15;0.70;;;20.30;56.80;;;;;;5014641;28;20080;-69
2023/11/16 12:27:04;;;;;;;1.20;0.70;;;20.30;56.80;;;;;;5016543;28;20085;-70
2023/11/16 12:29:30;;;;;;;1.77;0.98;;;20.30;56.80;;;;;;5017258;28;20033;-69
2023/11/16 12:31:56;;;;;;;0.68;0.60;;;20.30;56.80;;;;;;5018071;28;20026;-67
2023/11/16 12:34:26;;;;;;;0.90;0.80;;;20.30;56.90;;;;;;5019009;28;20030;-66
2023/11/16 12:36:54;;;;;;;;;;;20.30;56.80;;;;;;5015943;28;20022;-66
2023/11/16 12:39:25;;;;;;;0.93;0.57;;;20.30;56.80;;;;;;5017420;28;19943;-66
2023/11/16 12:41:52;;;;;;;1.05;0.70;;;20.30;56.80;;;;;;5015427;28;20069;-66
2023/11/16 12:44:18;;;;;;;1.17;0.80;;;20.30;56.80;;;;;;5019114;28;20465;-66
2023/11/16 12:46:43;;;;;;;1.40;0.95;;;20.30;56.80;;;;;;5019108;28;20041;-66
2023/11/16 12:49:09;;;;;;;0.65;0.60;;;20.20;56.80;;;;;;5019635;28;20113;-66
2023/11/16 12:51:35;;;;;;;1.20;0.80;;;20.20;56.80;;;;;;5017033;28;20030;-67
2023/11/16 12:54:00;;;;;;;1.08;0.70;;;20.30;56.80;;;;;;5019600;28;20026;-66